WetterOnline ( https://www.wetteronline.de )

Wetter aktuell Vörstetten

Aktuelles Wetter: Freiburg/Flugplatz (236m)

6-stündlich | Neueste Meldungen
Ortszeit Temperatur Wetter
Do, 29.10. 13:00 13.1° C bedeckt
Do, 29.10. 7:00 11.5° C leichter Regen
Do, 29.10. 1:00 13.9° C bedeckt
Mi, 28.10. 19:00 13.9° C wolkig
Mi, 28.10. 13:00 14.9° C bewölkt
Mi, 28.10. 7:00 11.8° C bedeckt
Mi, 28.10. 1:00 12.8° C bedeckt
Di, 27.10. 19:00 8.2° C leicht bewölkt
Ortszeit Temperatur Wetter
Do, 29.10. 15:30 13.2° C leichter Regen
Do, 29.10. 15:20 13.2° C leichter Regen
Do, 29.10. 15:10 13.3° C leichter Regen
Do, 29.10. 15:00 13.5° C bedeckt
Do, 29.10. 14:50 13.5° C bedeckt
Do, 29.10. 14:40 13.5° C bedeckt
Do, 29.10. 14:30 13.5° C bedeckt
Do, 29.10. 14:00 13.2° C bedeckt
Do, 29.10. 12:00 13.0° C bedeckt
Ortszeit Relative Feuchte Sichtweite
Do, 29.10. 13:00 79% 70 km
Do, 29.10. 7:00 88% 22 km
Do, 29.10. 1:00 69% 70 km
Mi, 28.10. 19:00 67% 70 km
Mi, 28.10. 13:00 62% 55 km
Mi, 28.10. 7:00 88% 70 km
Mi, 28.10. 1:00 60% 70 km
Di, 27.10. 19:00 74% 70 km
Ortszeit Relative Feuchte Sichtweite
Do, 29.10. 15:30 70% 50 km
Do, 29.10. 15:20 70% -
Do, 29.10. 15:10 72% -
Do, 29.10. 15:00 71% 70 km
Do, 29.10. 14:50 71% -
Do, 29.10. 14:40 72% -
Do, 29.10. 14:30 74% 70 km
Do, 29.10. 14:00 80% 70 km
Do, 29.10. 12:00 77% 70 km
Ortszeit Niederschlagsmenge Niederschlagsart
Do, 29.10. 13:00 0.4 l/m2 in 6 Std. Regen
Do, 29.10. 7:00 2 l/m2 in 12 Std. Regen
Do, 29.10. 1:00 0.1 l/m2 in 6 Std. Regen
Mi, 28.10. 19:00 0.1 l/m2 in 12 Std. Regen
Mi, 28.10. 13:00 0.1 l/m2 in 6 Std. Regen
Mi, 28.10. 7:00 0.7 l/m2 in 12 Std. Regen
Mi, 28.10. 1:00 0.0 l/m2 in 6 Std. -
Di, 27.10. 19:00 0.1 l/m2 in 12 Std. -
Ortszeit Niederschlagsmenge Niederschlagsart
Do, 29.10. 15:30 0.1 l/m2 in 1 Std. -
Do, 29.10. 15:20 keine Meldung -
Do, 29.10. 15:10 keine Meldung -
Do, 29.10. 15:00 0.1 l/m2 in 1 Std. -
Do, 29.10. 14:50 keine Meldung -
Do, 29.10. 14:40 keine Meldung -
Do, 29.10. 14:30 0.1 l/m2 in 1 Std. -
Do, 29.10. 14:00 0.4 l/m2 in 1 Std. Regen
Do, 29.10. 12:00 keine Meldung -
Ortszeit Stärke Spitze Richtung
km/h Bft. km/h Grad Sektor
Do, 29.10. 13:00 19 3 41 220° SW
Do, 29.10. 7:00 24 4 56 210° SW
Do, 29.10. 1:00 31 5 50 210° SW
Mi, 28.10. 19:00 15 3 44 210° SW
Mi, 28.10. 13:00 17 3 50 220° SW
Mi, 28.10. 7:00 7 2 36 200° S
Mi, 28.10. 1:00 14 3 29 210° SW
Di, 27.10. 19:00 13 3 31 170° S
Ortszeit Stärke Spitze Richtung
km/h Bft. km/h Grad Sektor
Do, 29.10. 15:30 13 3 28 230° SW
Do, 29.10. 15:20 13 3 - 230° SW
Do, 29.10. 15:10 14 3 - 230° SW
Do, 29.10. 15:00 14 3 40 240° SW
Do, 29.10. 14:50 14 3 - 240° SW
Do, 29.10. 14:40 17 3 - 240° SW
Do, 29.10. 14:30 18 3 40 240° SW
Do, 29.10. 14:00 11 2 29 250° W
Do, 29.10. 12:00 22 4 40 220° SW
Ortszeit Untergrenze Bedeckung Gattung
total tief tief mittel hoch
Do, 29.10. 13:00 1260 m 8/8 8/8 - - -
Do, 29.10. 7:00 480 m 7/8 7/8 - - -
Do, 29.10. 1:00 930 m 8/8 8/8 - - -
Mi, 28.10. 19:00 1800 m 8/8 1/8 - - -
Mi, 28.10. 13:00 1800 m 7/8 7/8 - - -
Mi, 28.10. 7:00 600 m 8/8 8/8 - - -
Mi, 28.10. 1:00 990 m 8/8 8/8 - - -
Di, 27.10. 19:00 4200 m 3/8 3/8 - - -
Ortszeit Bedeckungsgrad in Achtel und Wolkenuntergrenze
Do, 29.10. 15:30 5(1350m) 7(2400m) 8(3000m)
Do, 29.10. 15:20 5(1350m) 7(2400m) 8(3000m)
Do, 29.10. 15:10 2(990m) 7(2100m) 8(3000m)
Do, 29.10. 15:00 5(900m) 8(2100m) 8(3000m)
Do, 29.10. 14:50 5(900m) 8(2100m) 8(3000m)
Do, 29.10. 14:40 2(690m) 8(1800m) 8(3600m)
Do, 29.10. 14:30 5(660m) 8(1800m) 8(3600m)
Do, 29.10. 14:00 6(570m) 7(780m) 8(1260m)
Do, 29.10. 12:00 5(1410m) 8(1800m) 8(4200m)
Ortszeit Luftdruck NN (hPa) Tendenz (hPa in 3 Std.)
Do, 29.10. 13:00 1023 + 0,5
Do, 29.10. 7:00 1019 + 1,7
Do, 29.10. 1:00 1017 + 0,4
Mi, 28.10. 19:00 1016 + 0,4
Mi, 28.10. 13:00 1016 + 1,2
Mi, 28.10. 7:00 1013 + 1,0
Mi, 28.10. 1:00 1012 0,0
Di, 27.10. 19:00 1013 - 0,2
Ortszeit Luftdruck NN (hPa) Tendenz (hPa in 3 Std.)
Do, 29.10. 15:30 1023 + 0,4
Do, 29.10. 15:20 1023 keine Meldung
Do, 29.10. 15:10 1023 keine Meldung
Do, 29.10. 15:00 1023 + 0,5
Do, 29.10. 14:50 1023 keine Meldung
Do, 29.10. 14:40 1023 keine Meldung
Do, 29.10. 14:30 1023 + 0,2
Do, 29.10. 14:00 1023 + 0,1
Do, 29.10. 12:00 1023 + 1,5
Ortszeit Schneehöhe (cm)
Do, 29.10. 13:00 0
Do, 29.10. 7:00 0
Do, 29.10. 1:00 0
Mi, 28.10. 19:00 0
Mi, 28.10. 13:00 0
Mi, 28.10. 7:00 0
Mi, 28.10. 1:00 0
Di, 27.10. 19:00 0
Ortszeit Schneehöhe (cm)
Do, 29.10. 15:30 0
Do, 29.10. 15:20 0
Do, 29.10. 15:10 0
Do, 29.10. 15:00 0
Do, 29.10. 14:50 0
Do, 29.10. 14:40 0
Do, 29.10. 14:30 0
Do, 29.10. 14:00 0
Do, 29.10. 12:00 -
Link zu dieser Seite / Seite empfehlen

Das Wetter in ...